createdAt,value
2018-08-18T00:02:17.679Z,1.20
2018-08-18T00:07:21.285Z,1.70
2018-08-18T00:12:29.258Z,1.00
2018-08-18T00:17:32.839Z,1.10
2018-08-18T00:22:36.515Z,1.07
2018-08-18T00:27:40.118Z,1.20
2018-08-18T00:32:43.944Z,1.27
2018-08-18T00:37:47.561Z,1.20
2018-08-18T00:42:51.181Z,1.03
2018-08-18T00:47:55.919Z,1.00
2018-08-18T00:52:59.575Z,1.23
2018-08-18T00:58:03.651Z,1.50
2018-08-18T01:03:07.429Z,1.40
2018-08-18T01:08:11.045Z,1.27
2018-08-18T01:13:14.752Z,1.33
2018-08-18T01:18:18.360Z,1.40
2018-08-18T01:23:22.037Z,1.37
2018-08-18T01:28:25.787Z,1.20
2018-08-18T01:33:29.344Z,1.50
2018-08-18T01:38:36.133Z,1.73
2018-08-18T01:43:39.704Z,1.43
2018-08-18T01:48:43.251Z,1.23
2018-08-18T01:53:49.273Z,1.40
2018-08-18T01:58:52.898Z,1.70
2018-08-18T02:03:56.663Z,1.47
2018-08-18T02:09:00.259Z,1.70
2018-08-18T02:14:03.979Z,1.33
2018-08-18T02:19:07.542Z,1.50
2018-08-18T02:24:11.957Z,1.53
2018-08-18T02:29:15.554Z,1.37
2018-08-18T02:34:21.356Z,1.30
2018-08-18T02:39:25.014Z,1.37
2018-08-18T02:44:28.605Z,1.40
2018-08-18T02:49:36.376Z,1.37
2018-08-18T02:54:40.988Z,1.47
2018-08-18T02:59:46.428Z,1.47
2018-08-18T03:04:50.004Z,1.70
2018-08-18T03:09:53.974Z,1.47
2018-08-18T03:14:57.687Z,1.60
2018-08-18T03:20:01.232Z,1.53
2018-08-18T03:25:06.804Z,1.50
2018-08-18T03:30:10.456Z,1.57
2018-08-18T03:35:14.045Z,1.27
2018-08-18T03:40:17.618Z,1.47
2018-08-18T03:45:21.256Z,1.60
2018-08-18T03:50:28.197Z,1.47
2018-08-18T03:55:38.437Z,1.40
2018-08-18T04:00:44.547Z,1.60
2018-08-18T04:05:48.180Z,1.37
2018-08-18T04:10:53.841Z,1.60
2018-08-18T04:15:57.419Z,1.37
2018-08-18T04:21:01.060Z,1.47
2018-08-18T04:26:06.763Z,1.57
2018-08-18T04:31:10.643Z,1.73
2018-08-18T04:36:14.208Z,1.53
2018-08-18T04:41:17.791Z,1.50
2018-08-18T04:46:21.326Z,1.37
2018-08-18T04:51:24.901Z,1.47
2018-08-18T04:56:28.619Z,1.67
2018-08-18T05:01:32.303Z,1.43
2018-08-18T05:06:37.851Z,1.40
2018-08-18T05:11:41.690Z,1.57
2018-08-18T05:16:45.320Z,1.47
2018-08-18T05:21:48.922Z,1.37
2018-08-18T05:26:53.868Z,1.53
2018-08-18T05:31:57.538Z,1.37
2018-08-18T05:37:02.039Z,1.43
2018-08-18T05:42:05.679Z,1.83
2018-08-18T05:47:09.411Z,1.90
2018-08-18T05:52:13.022Z,2.03
2018-08-18T05:57:16.643Z,2.13
2018-08-18T06:02:21.373Z,2.20
2018-08-18T06:07:24.892Z,2.17
2018-08-18T06:12:28.950Z,2.47
2018-08-18T06:17:32.826Z,2.27
2018-08-18T06:22:37.144Z,2.33
2018-08-18T06:27:42.739Z,2.27
2018-08-18T06:32:48.907Z,2.80
2018-08-18T06:37:57.978Z,2.50
2018-08-18T06:43:03.952Z,2.63
2018-08-18T06:48:23.713Z,2.20
2018-08-18T06:53:29.392Z,2.13
2018-08-18T06:58:33.028Z,2.20
2018-08-18T07:03:38.659Z,2.33
2018-08-18T07:08:47.698Z,1.87
2018-08-18T07:13:51.342Z,2.03
2018-08-18T07:18:55.133Z,1.77
2018-08-18T07:23:58.821Z,1.77
2018-08-18T07:29:02.745Z,1.50
2018-08-18T07:34:06.183Z,1.90
2018-08-18T07:39:09.823Z,1.57
2018-08-18T07:44:13.434Z,1.83
2018-08-18T07:49:17.244Z,1.73
2018-08-18T07:54:20.956Z,1.60
2018-08-18T07:59:24.649Z,1.50
2018-08-18T08:04:28.236Z,1.63
2018-08-18T08:09:31.840Z,1.70
2018-08-18T08:14:35.471Z,1.63
2018-08-18T08:19:39.180Z,1.93
2018-08-18T08:24:43.289Z,1.60
2018-08-18T08:29:47.375Z,1.30
2018-08-18T08:34:51.097Z,1.70
2018-08-18T08:39:54.718Z,1.67
2018-08-18T08:44:58.620Z,1.70
2018-08-18T08:50:02.263Z,1.33
2018-08-18T08:55:07.992Z,1.50
2018-08-18T09:00:12.142Z,1.63
2018-08-18T09:05:15.853Z,1.77
2018-08-18T09:10:19.537Z,1.70
2018-08-18T09:15:23.134Z,2.00
2018-08-18T09:20:27.944Z,1.77
2018-08-18T09:25:32.613Z,2.00
2018-08-18T09:30:36.546Z,2.00
2018-08-18T09:35:54.951Z,2.17
2018-08-18T09:40:58.567Z,2.17
2018-08-18T09:46:02.324Z,2.13
2018-08-18T09:51:08.177Z,2.03
2018-08-18T09:56:11.838Z,2.27
2018-08-18T10:01:15.478Z,2.07
2018-08-18T10:06:19.147Z,2.10
2018-08-18T10:11:22.768Z,3.13
2018-08-18T10:16:26.482Z,2.37
2018-08-18T10:21:30.244Z,3.10
2018-08-18T10:26:33.956Z,3.10
2018-08-18T10:31:42.112Z,3.10
2018-08-18T10:36:48.613Z,3.70
2018-08-18T10:41:59.184Z,3.60
2018-08-18T10:47:15.504Z,3.57
2018-08-18T10:52:31.531Z,2.83
2018-08-18T10:57:48.884Z,2.77
2018-08-18T11:02:53.750Z,2.07
2018-08-18T11:08:04.526Z,1.60
2018-08-18T11:13:08.330Z,2.60
2018-08-18T11:18:12.030Z,2.00
2018-08-18T11:23:15.850Z,2.20
2018-08-18T11:28:20.200Z,1.80
2018-08-18T11:33:42.011Z,2.30
2018-08-18T11:38:45.709Z,2.00
2018-08-18T11:43:50.590Z,2.00
2018-08-18T11:48:54.361Z,1.63
2018-08-18T11:54:01.109Z,2.20
2018-08-18T11:59:16.235Z,1.80
2018-08-18T12:04:21.293Z,1.90
2018-08-18T12:09:25.099Z,1.60
2018-08-18T12:14:28.710Z,1.20
2018-08-18T12:19:32.354Z,1.63
2018-08-18T12:24:36.345Z,1.90
2018-08-18T12:29:40.199Z,1.70
2018-08-18T12:34:43.800Z,2.33
2018-08-18T12:39:47.544Z,2.10
2018-08-18T12:44:51.302Z,1.80
2018-08-18T12:49:55.035Z,2.33
2018-08-18T12:54:58.938Z,2.00
2018-08-18T13:00:02.562Z,2.10
2018-08-18T13:05:06.239Z,1.63
2018-08-18T13:10:18.307Z,1.90
2018-08-18T13:15:22.054Z,2.00
2018-08-18T13:20:26.849Z,1.73
2018-08-18T13:25:30.720Z,1.73
2018-08-18T13:30:34.345Z,1.87
2018-08-18T13:35:38.790Z,1.93
2018-08-18T13:40:42.344Z,1.97
2018-08-18T13:45:46.066Z,1.60
2018-08-18T13:50:49.804Z,1.70
2018-08-18T13:55:53.466Z,1.60
2018-08-18T14:00:57.218Z,1.30
2018-08-18T14:06:00.812Z,2.00
2018-08-18T14:11:04.638Z,1.60
2018-08-18T14:16:08.204Z,1.33
2018-08-18T14:21:11.879Z,1.20
2018-08-18T14:26:15.554Z,1.20
2018-08-18T14:31:19.365Z,1.30
2018-08-18T14:36:24.066Z,1.30
2018-08-18T14:41:42.424Z,0.90
2018-08-18T14:46:47.263Z,1.10
2018-08-18T14:51:50.935Z,1.00
2018-08-18T14:56:54.533Z,0.97
2018-08-18T15:01:58.193Z,1.00
2018-08-18T15:07:01.768Z,1.10
2018-08-18T15:12:05.485Z,0.90
2018-08-18T15:17:09.190Z,0.90
2018-08-18T15:22:13.317Z,0.90
2018-08-18T15:27:17.022Z,0.90
2018-08-18T15:32:20.669Z,0.97
2018-08-18T15:37:24.327Z,1.00
2018-08-18T15:42:27.891Z,1.10
2018-08-18T15:47:31.563Z,0.90
2018-08-18T15:52:35.546Z,0.90
2018-08-18T15:57:39.172Z,0.93
2018-08-18T16:02:42.700Z,1.27
2018-08-18T16:07:46.449Z,1.17
2018-08-18T16:12:50.562Z,1.17
2018-08-18T16:17:54.658Z,1.30
2018-08-18T16:22:59.012Z,1.10
2018-08-18T16:28:03.464Z,1.20
2018-08-18T16:33:14.525Z,1.20
2018-08-18T16:38:18.175Z,1.00
2018-08-18T16:43:21.697Z,1.03
2018-08-18T16:48:25.330Z,1.30
2018-08-18T16:53:28.935Z,1.10
2018-08-18T16:58:32.498Z,0.90
2018-08-18T17:03:36.306Z,1.10
2018-08-18T17:08:40.038Z,1.00
2018-08-18T17:13:44.770Z,1.00
2018-08-18T17:18:48.363Z,1.10
2018-08-18T17:23:52.003Z,1.00
2018-08-18T17:28:55.687Z,0.90
2018-08-18T17:33:59.360Z,0.80
2018-08-18T17:39:03.480Z,0.87
2018-08-18T17:44:07.106Z,0.90
2018-08-18T17:49:10.731Z,0.90
2018-08-18T17:54:14.731Z,1.10
2018-08-18T17:59:21.570Z,0.90
2018-08-18T18:04:26.434Z,1.03
2018-08-18T18:09:32.167Z,1.20
2018-08-18T18:14:35.801Z,1.30
2018-08-18T18:19:39.445Z,1.50
2018-08-18T18:24:55.558Z,1.50
2018-08-18T18:35:27.393Z,1.40
2018-08-18T18:40:34.869Z,1.40
2018-08-18T18:45:38.706Z,1.30
2018-08-18T18:50:45.029Z,8.37
2018-08-18T18:55:53.691Z,5.83
2018-08-18T19:01:02.515Z,1.97
2018-08-18T19:06:06.173Z,2.00
2018-08-18T19:11:09.752Z,1.67
2018-08-18T19:16:13.473Z,1.70
2018-08-18T19:21:17.231Z,1.67
2018-08-18T19:26:20.843Z,1.63
2018-08-18T19:31:28.620Z,2.07
2018-08-18T19:36:32.568Z,1.67
2018-08-18T19:47:07.157Z,1.67
2018-08-18T19:52:12.640Z,2.03
2018-08-18T20:08:21.075Z,1.80
2018-08-18T20:24:34.507Z,1.93
2018-08-18T20:35:10.808Z,1.73
2018-08-18T20:40:15.151Z,2.10
2018-08-18T20:45:18.764Z,1.83
2018-08-18T20:50:22.356Z,2.20
2018-08-18T20:55:25.969Z,2.77
2018-08-18T21:00:29.710Z,2.27
2018-08-18T21:05:33.982Z,2.57
2018-08-18T21:10:37.600Z,2.00
2018-08-18T21:15:41.294Z,2.20
2018-08-18T21:20:44.922Z,2.37
2018-08-18T21:25:50.249Z,2.40
2018-08-18T21:30:54.505Z,1.97
2018-08-18T21:35:59.631Z,2.00
2018-08-18T21:41:04.214Z,2.40
2018-08-18T21:46:07.941Z,2.57
2018-08-18T21:51:11.559Z,2.70
2018-08-18T21:56:15.161Z,2.00
2018-08-18T22:01:20.235Z,2.33
2018-08-18T22:06:23.918Z,2.27
2018-08-18T22:11:27.493Z,2.47
2018-08-18T22:16:31.103Z,2.47
2018-08-18T22:21:34.746Z,2.80
2018-08-18T22:26:39.714Z,2.57
2018-08-18T22:31:43.365Z,2.60
2018-08-18T22:36:46.978Z,2.60
2018-08-18T22:41:50.616Z,2.83
2018-08-18T22:46:54.881Z,2.60
2018-08-18T22:51:58.474Z,2.50
2018-08-18T22:57:03.529Z,2.40
2018-08-18T23:02:07.182Z,2.63
2018-08-18T23:07:10.814Z,2.40
2018-08-18T23:12:14.389Z,2.97
2018-08-18T23:17:17.982Z,2.57
2018-08-18T23:22:32.870Z,2.83
2018-08-18T23:27:36.426Z,3.03
2018-08-18T23:32:40.126Z,3.20
2018-08-18T23:37:43.753Z,2.53
2018-08-18T23:42:47.320Z,2.47
2018-08-18T23:47:57.157Z,2.70
2018-08-18T23:53:07.722Z,2.53
2018-08-18T23:58:11.344Z,2.57
